UTA565 USHH-USNN
Flight info
| Callsign | UTA565 |
|---|---|
| Flight time | 0h 43m |
| Altitude | 31000 |
| Route | KUPE1B KUPEN L870 ULGUN M59 TETSI TETS1T |
| Aircraft | B38M/M-SBDFGM3RWXY/LB1 |
Departure
| Time | 2026-04-21 15:33 |
|---|---|
| Airport | Khanty Mansiysk Airport (USHH) |
Arrival
| Time | 2026-04-21 16:16 |
|---|---|
| Airport | Nizhnevartovsk Airport (USNN) |
| Time | Latitude | Longitude | Altitude | Speed | Heading |
|---|---|---|---|---|---|
| 2026-04-21 15:09 | 61.02663 | 69.09256 | 143 ft | 0 kts | 255° |
| 2026-04-21 15:28 | 61.02662 | 69.09250 | 143 ft | 1 kts | 255° |
| 2026-04-21 15:28 | 61.02660 | 69.09197 | 143 ft | 3 kts | 279° |
| 2026-04-21 15:28 | 61.02694 | 69.09145 | 142 ft | 9 kts | 344° |
| 2026-04-21 15:28 | 61.02730 | 69.09014 | 141 ft | 13 kts | 258° |
| 2026-04-21 15:29 | 61.02705 | 69.08813 | 140 ft | 15 kts | 255° |
| 2026-04-21 15:29 | 61.02678 | 69.08598 | 140 ft | 16 kts | 255° |
| 2026-04-21 15:29 | 61.02649 | 69.08367 | 140 ft | 17 kts | 255° |
| 2026-04-21 15:29 | 61.02616 | 69.08114 | 138 ft | 19 kts | 255° |
| 2026-04-21 15:30 | 61.02583 | 69.07848 | 137 ft | 19 kts | 255° |
| 2026-04-21 15:30 | 61.02548 | 69.07577 | 137 ft | 19 kts | 256° |
| 2026-04-21 15:30 | 61.02548 | 69.07358 | 137 ft | 6 kts | 296° |
| 2026-04-21 15:30 | 61.02549 | 69.07354 | 137 ft | 0 kts | 297° |
| 2026-04-21 15:31 | 61.02564 | 69.07310 | 137 ft | 9 kts | 311° |
| 2026-04-21 15:31 | 61.02655 | 69.07244 | 137 ft | 18 kts | 15° |
| 2026-04-21 15:32 | 61.02697 | 69.07388 | 137 ft | 3 kts | 75° |
| 2026-04-21 15:32 | 61.02697 | 69.07390 | 137 ft | 0 kts | 75° |
| 2026-04-21 15:32 | 61.02722 | 69.07581 | 137 ft | 45 kts | 75° |
| 2026-04-21 15:32 | 61.02891 | 69.08896 | 141 ft | 139 kts | 75° |
| 2026-04-21 15:33 | 61.03180 | 69.11193 | 551 ft | 177 kts | 76° |
| 2026-04-21 15:33 | 61.03480 | 69.13752 | 1274 ft | 202 kts | 77° |
| 2026-04-21 15:33 | 61.03812 | 69.16830 | 1736 ft | 239 kts | 77° |
| 2026-04-21 15:33 | 61.04228 | 69.20089 | 2549 ft | 233 kts | 74° |
| 2026-04-21 15:34 | 61.04680 | 69.23320 | 3030 ft | 243 kts | 75° |
| 2026-04-21 15:34 | 61.05084 | 69.26748 | 3606 ft | 247 kts | 78° |
| 2026-04-21 15:34 | 61.05441 | 69.30228 | 4220 ft | 250 kts | 79° |
| 2026-04-21 15:34 | 61.05795 | 69.33751 | 4837 ft | 252 kts | 79° |
| 2026-04-21 15:35 | 61.06157 | 69.37296 | 5444 ft | 255 kts | 79° |
| 2026-04-21 15:35 | 61.06525 | 69.40860 | 6043 ft | 257 kts | 80° |
| 2026-04-21 15:35 | 61.06900 | 69.44488 | 6637 ft | 260 kts | 80° |
| 2026-04-21 15:35 | 61.07278 | 69.48125 | 7217 ft | 263 kts | 81° |
| 2026-04-21 15:36 | 61.07661 | 69.51805 | 7788 ft | 266 kts | 81° |
| 2026-04-21 15:36 | 61.08054 | 69.55571 | 8355 ft | 269 kts | 81° |
| 2026-04-21 15:36 | 61.08446 | 69.59320 | 8905 ft | 273 kts | 81° |
| 2026-04-21 15:36 | 61.08853 | 69.63192 | 9453 ft | 277 kts | 82° |
| 2026-04-21 15:37 | 61.09264 | 69.67097 | 9971 ft | 282 kts | 82° |
| 2026-04-21 15:37 | 61.09694 | 69.71214 | 10071 ft | 303 kts | 82° |
| 2026-04-21 15:37 | 61.10158 | 69.75631 | 10149 ft | 323 kts | 82° |
| 2026-04-21 15:37 | 61.10649 | 69.80238 | 10490 ft | 332 kts | 82° |
| 2026-04-21 15:38 | 61.11154 | 69.84946 | 10943 ft | 338 kts | 82° |
| 2026-04-21 15:38 | 61.11662 | 69.89687 | 11424 ft | 342 kts | 82° |
| 2026-04-21 15:38 | 61.12182 | 69.94524 | 11893 ft | 347 kts | 82° |
| 2026-04-21 15:38 | 61.12714 | 69.99470 | 12407 ft | 350 kts | 82° |
| 2026-04-21 15:39 | 61.13244 | 70.04377 | 12923 ft | 353 kts | 82° |
| 2026-04-21 15:39 | 61.13752 | 70.09369 | 13437 ft | 355 kts | 83° |
| 2026-04-21 15:39 | 61.14243 | 70.14417 | 13947 ft | 358 kts | 83° |
| 2026-04-21 15:39 | 61.14732 | 70.19446 | 14452 ft | 361 kts | 83° |
| 2026-04-21 15:40 | 61.15232 | 70.24578 | 14954 ft | 364 kts | 83° |
| 2026-04-21 15:40 | 61.15735 | 70.29728 | 15447 ft | 367 kts | 83° |
| 2026-04-21 15:40 | 61.16244 | 70.34955 | 15930 ft | 370 kts | 83° |
| 2026-04-21 15:40 | 61.16753 | 70.40196 | 16397 ft | 373 kts | 83° |
| 2026-04-21 15:41 | 61.17261 | 70.45433 | 16853 ft | 375 kts | 83° |
| 2026-04-21 15:41 | 61.17776 | 70.50773 | 17298 ft | 378 kts | 83° |
| 2026-04-21 15:41 | 61.18291 | 70.56140 | 17736 ft | 381 kts | 83° |
| 2026-04-21 15:41 | 61.18803 | 70.61485 | 18158 ft | 383 kts | 83° |
| 2026-04-21 15:42 | 61.19326 | 70.66986 | 18590 ft | 386 kts | 84° |
| 2026-04-21 15:42 | 61.19842 | 70.72402 | 18994 ft | 388 kts | 84° |
| 2026-04-21 15:42 | 61.20368 | 70.77911 | 19391 ft | 391 kts | 84° |
| 2026-04-21 15:42 | 61.20892 | 70.83424 | 19769 ft | 394 kts | 84° |
| 2026-04-21 15:43 | 61.21421 | 70.89021 | 20131 ft | 397 kts | 83° |
| 2026-04-21 15:43 | 61.21955 | 70.94712 | 20494 ft | 399 kts | 84° |
| 2026-04-21 15:43 | 61.22449 | 71.00413 | 20839 ft | 402 kts | 84° |
| 2026-04-21 15:43 | 61.22928 | 71.06095 | 21181 ft | 405 kts | 84° |
| 2026-04-21 15:44 | 61.23414 | 71.11816 | 21532 ft | 407 kts | 84° |
| 2026-04-21 15:44 | 61.23916 | 71.17680 | 21872 ft | 410 kts | 84° |
| 2026-04-21 15:44 | 61.24417 | 71.23495 | 22207 ft | 412 kts | 84° |
| 2026-04-21 15:44 | 61.24918 | 71.29298 | 22528 ft | 414 kts | 84° |
| 2026-04-21 15:45 | 61.25426 | 71.35204 | 22849 ft | 416 kts | 84° |
| 2026-04-21 15:45 | 61.25936 | 71.41119 | 23162 ft | 419 kts | 84° |
| 2026-04-21 15:45 | 61.26453 | 71.47151 | 23469 ft | 421 kts | 84° |
| 2026-04-21 15:45 | 61.26966 | 71.53145 | 23772 ft | 423 kts | 84° |
| 2026-04-21 15:46 | 61.27479 | 71.59169 | 24063 ft | 425 kts | 84° |
| 2026-04-21 15:46 | 61.27991 | 71.65201 | 24352 ft | 427 kts | 85° |
| 2026-04-21 15:46 | 61.28506 | 71.71288 | 24650 ft | 429 kts | 84° |
| 2026-04-21 15:46 | 61.29018 | 71.77373 | 24915 ft | 431 kts | 84° |
| 2026-04-21 15:47 | 61.29535 | 71.83551 | 25194 ft | 433 kts | 84° |
| 2026-04-21 15:47 | 61.30043 | 71.89655 | 25454 ft | 435 kts | 84° |
| 2026-04-21 15:47 | 61.30562 | 71.95915 | 25716 ft | 437 kts | 84° |
| 2026-04-21 15:47 | 61.31069 | 72.02080 | 25966 ft | 439 kts | 84° |
| 2026-04-21 15:48 | 61.31587 | 72.08403 | 26220 ft | 440 kts | 84° |
| 2026-04-21 15:48 | 61.32123 | 72.14674 | 26461 ft | 443 kts | 84° |
| 2026-04-21 15:48 | 61.32686 | 72.20924 | 26703 ft | 445 kts | 83° |
| 2026-04-21 15:48 | 61.33262 | 72.27266 | 26935 ft | 447 kts | 83° |
| 2026-04-21 15:49 | 61.33847 | 72.33657 | 27171 ft | 449 kts | 83° |
| 2026-04-21 15:49 | 61.34427 | 72.39970 | 27394 ft | 450 kts | 83° |
| 2026-04-21 15:49 | 61.35016 | 72.46390 | 27716 ft | 449 kts | 83° |
| 2026-04-21 15:49 | 61.35605 | 72.52795 | 28045 ft | 448 kts | 83° |
| 2026-04-21 15:50 | 61.36190 | 72.59192 | 28345 ft | 448 kts | 83° |
| 2026-04-21 15:50 | 61.36773 | 72.65580 | 28647 ft | 447 kts | 84° |
| 2026-04-21 15:50 | 61.37354 | 72.71960 | 28948 ft | 447 kts | 84° |
| 2026-04-21 15:50 | 61.37926 | 72.78261 | 29246 ft | 446 kts | 84° |
| 2026-04-21 15:51 | 61.38486 | 72.84641 | 29547 ft | 445 kts | 84° |
| 2026-04-21 15:51 | 61.39027 | 72.90932 | 29845 ft | 444 kts | 84° |
| 2026-04-21 15:51 | 61.39572 | 72.97253 | 30146 ft | 442 kts | 84° |
| 2026-04-21 15:51 | 61.40114 | 73.03522 | 30445 ft | 441 kts | 84° |
| 2026-04-21 15:52 | 61.40659 | 73.09809 | 30716 ft | 441 kts | 84° |
| 2026-04-21 15:52 | 61.41202 | 73.16098 | 30753 ft | 444 kts | 83° |
| 2026-04-21 15:52 | 61.42305 | 73.28891 | 30751 ft | 451 kts | 83° |
| 2026-04-21 15:53 | 61.43420 | 73.41878 | 30750 ft | 457 kts | 83° |
| 2026-04-21 15:53 | 61.44537 | 73.54999 | 30749 ft | 463 kts | 83° |
| 2026-04-21 15:54 | 61.45659 | 73.68340 | 30135 ft | 482 kts | 84° |
| 2026-04-21 15:54 | 61.46239 | 73.75284 | 29092 ft | 483 kts | 84° |
| 2026-04-21 15:54 | 61.46808 | 73.82078 | 28303 ft | 462 kts | 84° |
| 2026-04-21 15:55 | 61.47343 | 73.88494 | 27757 ft | 440 kts | 84° |
| 2026-04-21 15:55 | 61.47850 | 73.94664 | 27169 ft | 425 kts | 84° |
| 2026-04-21 15:55 | 61.48339 | 74.00728 | 26585 ft | 431 kts | 84° |
| 2026-04-21 15:55 | 61.48839 | 74.06986 | 25951 ft | 438 kts | 84° |
| 2026-04-21 15:56 | 61.49085 | 74.13202 | 25212 ft | 428 kts | 95° |
| 2026-04-21 15:56 | 61.48868 | 74.19295 | 24610 ft | 417 kts | 102° |
| 2026-04-21 15:56 | 61.48349 | 74.25179 | 24011 ft | 406 kts | 107° |
| 2026-04-21 15:56 | 61.47596 | 74.30823 | 23423 ft | 397 kts | 112° |
| 2026-04-21 15:57 | 61.46701 | 74.36170 | 22847 ft | 389 kts | 115° |
| 2026-04-21 15:57 | 61.45706 | 74.41393 | 22275 ft | 381 kts | 116° |
| 2026-04-21 15:57 | 61.44675 | 74.46395 | 21685 ft | 381 kts | 118° |
| 2026-04-21 15:57 | 61.43571 | 74.51469 | 21104 ft | 379 kts | 118° |
| 2026-04-21 15:58 | 61.42477 | 74.56340 | 20541 ft | 372 kts | 119° |
| 2026-04-21 15:58 | 61.41373 | 74.61151 | 19989 ft | 366 kts | 119° |
| 2026-04-21 15:58 | 61.40258 | 74.65947 | 19444 ft | 365 kts | 120° |
| 2026-04-21 15:58 | 61.39142 | 74.70686 | 18896 ft | 364 kts | 121° |
| 2026-04-21 15:59 | 61.38028 | 74.75389 | 18334 ft | 358 kts | 121° |
| 2026-04-21 15:59 | 61.36943 | 74.79939 | 17804 ft | 352 kts | 121° |
| 2026-04-21 15:59 | 61.35854 | 74.84467 | 17280 ft | 353 kts | 121° |
| 2026-04-21 15:59 | 61.34743 | 74.89066 | 16733 ft | 352 kts | 121° |
| 2026-04-21 16:00 | 61.33654 | 74.93568 | 16187 ft | 345 kts | 121° |
| 2026-04-21 16:00 | 61.32597 | 74.97926 | 15669 ft | 340 kts | 121° |
| 2026-04-21 16:00 | 61.31532 | 75.02299 | 15158 ft | 343 kts | 121° |
| 2026-04-21 16:00 | 61.30445 | 75.06756 | 14613 ft | 339 kts | 121° |
| 2026-04-21 16:01 | 61.29400 | 75.11041 | 14091 ft | 334 kts | 121° |
| 2026-04-21 16:01 | 61.28346 | 75.15334 | 13571 ft | 328 kts | 121° |
| 2026-04-21 16:01 | 61.27268 | 75.19553 | 13067 ft | 333 kts | 122° |
| 2026-04-21 16:01 | 61.26205 | 75.23698 | 12539 ft | 327 kts | 121° |
| 2026-04-21 16:02 | 61.25145 | 75.27871 | 12027 ft | 322 kts | 121° |
| 2026-04-21 16:02 | 61.24125 | 75.31905 | 11533 ft | 319 kts | 121° |
| 2026-04-21 16:02 | 61.23092 | 75.35992 | 11031 ft | 319 kts | 121° |
| 2026-04-21 16:02 | 61.22074 | 75.40025 | 10520 ft | 313 kts | 120° |
| 2026-04-21 16:03 | 61.21078 | 75.43969 | 10147 ft | 303 kts | 120° |
| 2026-04-21 16:03 | 61.20119 | 75.47762 | 10041 ft | 286 kts | 120° |
| 2026-04-21 16:03 | 61.19214 | 75.51371 | 9958 ft | 285 kts | 121° |
| 2026-04-21 16:03 | 61.18286 | 75.55039 | 9869 ft | 284 kts | 122° |
| 2026-04-21 16:04 | 61.17394 | 75.58556 | 9771 ft | 270 kts | 122° |
| 2026-04-21 16:04 | 61.16511 | 75.61920 | 9560 ft | 262 kts | 126° |
| 2026-04-21 16:04 | 61.15436 | 75.64938 | 9159 ft | 258 kts | 136° |
| 2026-04-21 16:04 | 61.14152 | 75.67451 | 8837 ft | 251 kts | 145° |
| 2026-04-21 16:05 | 61.12785 | 75.69611 | 8527 ft | 251 kts | 148° |
| 2026-04-21 16:05 | 61.11351 | 75.71728 | 8203 ft | 257 kts | 148° |
| 2026-04-21 16:05 | 61.09908 | 75.73897 | 7869 ft | 254 kts | 147° |
| 2026-04-21 16:05 | 61.08491 | 75.76009 | 7550 ft | 250 kts | 148° |
| 2026-04-21 16:06 | 61.07068 | 75.78080 | 7232 ft | 247 kts | 149° |
| 2026-04-21 16:06 | 61.05674 | 75.80157 | 6938 ft | 253 kts | 148° |
| 2026-04-21 16:06 | 61.04269 | 75.82301 | 6613 ft | 251 kts | 148° |
| 2026-04-21 16:06 | 61.02864 | 75.84457 | 6288 ft | 248 kts | 147° |
| 2026-04-21 16:07 | 61.01500 | 75.86583 | 5984 ft | 245 kts | 147° |
| 2026-04-21 16:07 | 61.00160 | 75.88662 | 5679 ft | 243 kts | 148° |
| 2026-04-21 16:07 | 60.98786 | 75.90785 | 5381 ft | 247 kts | 147° |
| 2026-04-21 16:07 | 60.97411 | 75.92872 | 5049 ft | 245 kts | 148° |
| 2026-04-21 16:08 | 60.94677 | 75.96909 | 4435 ft | 239 kts | 149° |
| 2026-04-21 16:08 | 60.93285 | 75.98939 | 4143 ft | 246 kts | 149° |
| 2026-04-21 16:08 | 60.91914 | 76.00914 | 3824 ft | 243 kts | 149° |
| 2026-04-21 16:09 | 60.90533 | 76.02859 | 3535 ft | 236 kts | 150° |
| 2026-04-21 16:09 | 60.89216 | 76.04684 | 3231 ft | 222 kts | 151° |
| 2026-04-21 16:09 | 60.87969 | 76.06374 | 2924 ft | 209 kts | 151° |
| 2026-04-21 16:09 | 60.86854 | 76.08204 | 2645 ft | 201 kts | 137° |
| 2026-04-21 16:10 | 60.85983 | 76.10281 | 2483 ft | 187 kts | 136° |
| 2026-04-21 16:10 | 60.85162 | 76.12131 | 2368 ft | 159 kts | 140° |
| 2026-04-21 16:10 | 60.84420 | 76.13671 | 2338 ft | 146 kts | 141° |
| 2026-04-21 16:10 | 60.83727 | 76.15124 | 2363 ft | 145 kts | 141° |
| 2026-04-21 16:11 | 60.83053 | 76.16609 | 2379 ft | 139 kts | 140° |
| 2026-04-21 16:11 | 60.82383 | 76.18120 | 2335 ft | 145 kts | 135° |
| 2026-04-21 16:11 | 60.81907 | 76.19907 | 2321 ft | 150 kts | 114° |
| 2026-04-21 16:11 | 60.81789 | 76.22035 | 2373 ft | 151 kts | 86° |
| 2026-04-21 16:12 | 60.82195 | 76.24124 | 2385 ft | 160 kts | 58° |
| 2026-04-21 16:12 | 60.82930 | 76.25839 | 2378 ft | 161 kts | 46° |
| 2026-04-21 16:12 | 60.83747 | 76.27447 | 2354 ft | 162 kts | 45° |
| 2026-04-21 16:12 | 60.84584 | 76.29015 | 2340 ft | 164 kts | 44° |
| 2026-04-21 16:13 | 60.85432 | 76.30584 | 2105 ft | 163 kts | 40° |
| 2026-04-21 16:13 | 60.86263 | 76.32117 | 1964 ft | 161 kts | 43° |
| 2026-04-21 16:13 | 60.87094 | 76.33653 | 1764 ft | 162 kts | 41° |
| 2026-04-21 16:13 | 60.87926 | 76.35195 | 1569 ft | 161 kts | 41° |
| 2026-04-21 16:14 | 60.88749 | 76.36727 | 1376 ft | 161 kts | 41° |
| 2026-04-21 16:14 | 60.89589 | 76.38271 | 1180 ft | 160 kts | 41° |
| 2026-04-21 16:14 | 60.90403 | 76.39790 | 989 ft | 158 kts | 39° |
| 2026-04-21 16:14 | 60.91215 | 76.41296 | 803 ft | 157 kts | 39° |
| 2026-04-21 16:15 | 60.92049 | 76.42800 | 612 ft | 159 kts | 42° |
| 2026-04-21 16:15 | 60.92845 | 76.44309 | 452 ft | 157 kts | 43° |
| 2026-04-21 16:15 | 60.93653 | 76.45821 | 256 ft | 156 kts | 39° |
| 2026-04-21 16:15 | 60.94458 | 76.47302 | 143 ft | 146 kts | 44° |
| 2026-04-21 16:16 | 60.95072 | 76.48455 | 144 ft | 88 kts | 42° |
| 2026-04-21 16:16 | 60.95378 | 76.49040 | 149 ft | 37 kts | 41° |
| 2026-04-21 16:16 | 60.95509 | 76.49299 | 150 ft | 8 kts | 71° |
| 2026-04-21 16:16 | 60.95485 | 76.49348 | 150 ft | 4 kts | 154° |
| 2026-04-21 16:17 | 60.95459 | 76.49378 | 150 ft | 3 kts | 146° |
| 2026-04-21 16:17 | 60.95443 | 76.49408 | 149 ft | 2 kts | 135° |
| 2026-04-21 16:17 | 60.95427 | 76.49441 | 149 ft | 4 kts | 134° |
| 2026-04-21 16:17 | 60.95401 | 76.49491 | 148 ft | 5 kts | 145° |
| 2026-04-21 16:18 | 60.95368 | 76.49484 | 148 ft | 5 kts | 211° |
| 2026-04-21 16:18 | 60.95337 | 76.49426 | 147 ft | 5 kts | 230° |
| 2026-04-21 16:18 | 60.95314 | 76.49376 | 147 ft | 3 kts | 215° |
| 2026-04-21 16:18 | 60.95286 | 76.49355 | 147 ft | 4 kts | 175° |
| 2026-04-21 16:19 | 60.95257 | 76.49395 | 147 ft | 5 kts | 134° |
| 2026-04-21 16:19 | 60.95225 | 76.49446 | 147 ft | 5 kts | 176° |
| 2026-04-21 16:19 | 60.95211 | 76.49391 | 147 ft | 2 kts | 289° |
| 2026-04-21 16:19 | 60.95220 | 76.49358 | 147 ft | 2 kts | 304° |
| 2026-04-21 16:20 | 60.95227 | 76.49339 | 147 ft | 0 kts | 310° |